Terminal Aerodrome Forecast
Issued by NWS Mt. Holly, NJ

Home | Current Version | Previous Version | Text Only | Print | Product List | Glossary On
Versions: 1 2 3 4 5 6 7 8 9 10 11 12 13 14 15 16 17 18 19 20 21 22
000
FTUS41 KPHI 271700
TAFACY
TAF
KACY 271734Z 2718/2818 30009KT P6SM SCT020 BKN080
      TEMPO 2718/2722 BKN025 OVC070
     FM281400 31013G22KT P6SM SKC=

USA.gov is the U.S. government's official web portal to all federal, state and local government web resources and services.